LGSA/CHQ METAR and TAF weather

Enter ICAO airport designator
Station Type Date Time Source
LGSA METAR 2022/12/04 12:50 UTC NOAA

LGSA 041250Z 12006KT 9999 FEW020 17/12 Q1022


Station Type Date Time Source
LGSA Decoded METAR 2022/12/04 12:50 UTC NOAA

Souda Airport , Greece (LGSA) 35-29N 024-07E 151M
Dec 04, 2022 - 07:50 AM EST / 2022.12.04 1250 UTC
Wind: from the ESE (120 degrees) at 7 MPH (6 KT):0
Visibility: greater than 7 mile(s):0
Sky conditions: mostly clear
Temperature: 62 F (17 C)
Dew Point: 53 F (12 C)
Relative Humidity: 72%
Pressure (altimeter): 30.18 in. Hg (1022 hPa)
ob: LGSA 041250Z 12006KT 9999 FEW020 17/12 Q1022
cycle: 13

Station Type Date Time Source
LGSA TAF 2022/12/04 12:12 UTC NOAA

TAF LGSA 041100Z 0412/0512 VRB05KT 9999 SCT018 SCT080
TEMPO 0412/0418 BKN018

Example: see airport list